Time;durP1;ratioP1;P1;durP2;ratioP2;P2;SDS_P1;SDS_P2;PMS_P1;PMS_P2;Temp;Humidity;BMP_temperature;BMP_pressure;BME280_temperature;BME280_humidity;BME280_pressure;Samples;Min_cycle;Max_cycle;Signal;HPM_P1;HPM_P2
2022/03/20 00:00:05;;;;;;;8.88;3.78;;;5.50;99.90;;;;;;5037986;28;20137;-68
2022/03/20 00:02:32;;;;;;;7.18;3.65;;;5.50;99.90;;;;;;5040460;28;20049;-68
2022/03/20 00:05:00;;;;;;;6.68;3.90;;;5.50;99.90;;;;;;5020405;28;20155;-68
2022/03/20 00:07:27;;;;;;;7.13;3.65;;;5.50;99.90;;;;;;5040708;28;20146;-68
2022/03/20 00:09:52;;;;;;;9.95;4.18;;;5.40;99.90;;;;;;5045009;28;20037;-69
2022/03/20 00:12:18;;;;;;;9.93;4.47;;;5.40;99.90;;;;;;5042720;28;20504;-69
2022/03/20 00:14:44;;;;;;;8.43;4.10;;;5.40;99.90;;;;;;5012811;28;20041;-69
2022/03/20 00:17:10;;;;;;;7.80;3.83;;;5.40;99.90;;;;;;5034305;28;20038;-69
2022/03/20 00:19:35;;;;;;;12.13;4.03;;;5.30;99.90;;;;;;5042969;28;20044;-68
2022/03/20 00:22:04;;;;;;;9.10;3.60;;;5.30;99.90;;;;;;5034332;28;20384;-68
2022/03/20 00:24:29;;;;;;;9.52;4.28;;;5.30;99.90;;;;;;5022775;28;20082;-68
2022/03/20 00:26:58;;;;;;;8.67;4.10;;;5.30;99.90;;;;;;5037243;28;20036;-68
2022/03/20 00:29:28;;;;;;;9.73;4.43;;;5.30;99.90;;;;;;5038806;28;20095;-69
2022/03/20 00:31:53;;;;;;;9.43;4.53;;;5.20;99.90;;;;;;5012984;28;20087;-68
2022/03/20 00:34:19;;;;;;;8.90;4.10;;;5.20;99.90;;;;;;5019913;28;20505;-69
2022/03/20 00:36:45;;;;;;;13.57;4.23;;;5.20;99.90;;;;;;5041322;28;20040;-69
2022/03/20 00:39:11;;;;;;;7.87;3.80;;;5.20;99.90;;;;;;5049267;28;20386;-69
2022/03/20 00:41:37;;;;;;;13.73;4.37;;;5.10;99.90;;;;;;5018406;28;20056;-68
2022/03/20 00:44:02;;;;;;;6.67;4.03;;;5.10;99.90;;;;;;5027633;28;20041;-68
2022/03/20 00:46:28;;;;;;;7.93;4.17;;;5.10;99.90;;;;;;5020742;28;20307;-67
2022/03/20 00:48:54;;;;;;;10.70;3.90;;;5.10;99.90;;;;;;5042824;28;20410;-68
2022/03/20 00:51:20;;;;;;;11.45;4.25;;;5.10;99.90;;;;;;5034819;28;20030;-74
2022/03/20 00:53:46;;;;;;;6.10;3.67;;;5.00;99.90;;;;;;5030359;28;20107;-68
2022/03/20 00:56:12;;;;;;;10.07;3.53;;;5.00;99.90;;;;;;5027205;28;20049;-70
2022/03/20 00:58:38;;;;;;;;;;;5.00;99.90;;;;;;5053483;28;20115;-69
2022/03/20 01:01:04;;;;;;;9.05;4.32;;;5.00;99.90;;;;;;5045657;28;19925;-68
2022/03/20 01:03:30;;;;;;;7.00;3.93;;;4.90;99.90;;;;;;5046977;28;20041;-68
2022/03/20 01:05:56;;;;;;;9.70;4.07;;;4.90;99.90;;;;;;5046566;28;20490;-69
2022/03/20 01:08:23;;;;;;;9.13;4.72;;;4.90;99.90;;;;;;5036950;28;20071;-69
2022/03/20 01:10:49;;;;;;;6.30;3.53;;;4.90;99.90;;;;;;5037249;28;20052;-69
2022/03/20 01:13:15;;;;;;;8.30;3.97;;;4.90;99.90;;;;;;5027212;28;20037;-69
2022/03/20 01:15:42;;;;;;;;;;;4.80;99.90;;;;;;5032391;28;20124;-69
2022/03/20 01:18:08;;;;;;;10.77;4.20;;;4.80;99.90;;;;;;5047005;28;19935;-69
2022/03/20 01:20:34;;;;;;;11.10;4.10;;;4.80;99.90;;;;;;5037951;28;20033;-68
2022/03/20 01:23:00;;;;;;;11.95;4.22;;;4.80;99.90;;;;;;5030599;28;20114;-69
2022/03/20 01:25:26;;;;;;;7.97;4.22;;;4.80;99.90;;;;;;4926164;28;20045;-67
2022/03/20 01:27:52;;;;;;;9.05;4.18;;;4.70;99.90;;;;;;4911448;28;20392;-67
2022/03/20 01:30:18;;;;;;;8.40;4.20;;;4.70;99.90;;;;;;4940283;28;20119;-69
2022/03/20 01:32:44;;;;;;;10.00;4.00;;;4.70;99.90;;;;;;5021697;28;20529;-69
2022/03/20 01:35:10;;;;;;;10.50;4.20;;;4.70;99.90;;;;;;5046790;28;20033;-70
2022/03/20 01:37:36;;;;;;;15.00;5.20;;;4.70;99.90;;;;;;4965799;28;20669;-67
2022/03/20 01:40:04;;;;;;;10.55;4.40;;;4.60;99.90;;;;;;4929828;28;20049;-67
2022/03/20 01:42:32;;;;;;;8.27;4.13;;;4.60;99.90;;;;;;4929019;28;20410;-68
2022/03/20 01:44:58;;;;;;;10.82;4.93;;;4.60;99.90;;;;;;4912375;28;20049;-68
2022/03/20 01:47:24;;;;;;;12.63;4.70;;;4.60;99.90;;;;;;4959750;28;20383;-70
2022/03/20 01:49:50;;;;;;;9.93;5.03;;;4.60;99.90;;;;;;5036580;28;20056;-70
2022/03/20 01:52:25;;;;;;;9.10;4.35;;;4.60;99.90;;;;;;5033792;28;20036;-70
2022/03/20 01:54:51;;;;;;;9.82;4.85;;;4.60;99.90;;;;;;5022872;28;20074;-65
2022/03/20 01:57:21;;;;;;;16.45;4.95;;;4.50;99.90;;;;;;4946690;28;20090;-69
2022/03/20 01:59:49;;;;;;;12.65;5.35;;;4.50;99.90;;;;;;5044313;28;20055;-69
2022/03/20 02:02:14;;;;;;;12.90;5.25;;;4.50;99.90;;;;;;5039366;28;20041;-69
2022/03/20 02:04:40;;;;;;;12.67;5.53;;;4.50;99.90;;;;;;4969800;28;20134;-67
2022/03/20 02:07:07;;;;;;;11.57;4.85;;;4.50;99.90;;;;;;5007782;28;20628;-69
2022/03/20 02:09:37;;;;;;;10.43;4.78;;;4.50;99.90;;;;;;5043718;28;20033;-67
2022/03/20 02:12:03;;;;;;;9.60;4.47;;;4.40;99.90;;;;;;5048839;28;20041;-67
2022/03/20 02:14:32;;;;;;;12.23;5.75;;;4.40;99.90;;;;;;5049305;28;20049;-68
2022/03/20 02:16:58;;;;;;;15.48;4.90;;;4.40;99.90;;;;;;5049265;28;20060;-68
2022/03/20 02:19:25;;;;;;;9.52;5.13;;;4.40;99.90;;;;;;4938851;28;20312;-66
2022/03/20 02:21:51;;;;;;;12.35;4.88;;;4.40;99.90;;;;;;4898678;28;20110;-66
2022/03/20 02:24:31;;;;;;;10.05;4.95;;;4.30;99.90;;;;;;4919455;28;20481;-70
2022/03/20 02:27:03;;;;;;;9.00;5.47;;;4.40;99.90;;;;;;5042067;28;20045;-69
2022/03/20 02:29:29;;;;;;;13.32;5.55;;;4.30;99.90;;;;;;5032617;28;20127;-70
2022/03/20 02:31:55;;;;;;;10.20;5.03;;;4.30;99.90;;;;;;5051064;28;20542;-69
2022/03/20 02:34:20;;;;;;;12.20;6.57;;;4.30;99.90;;;;;;5069293;22;20041;-70
2022/03/20 02:36:46;;;;;;;14.13;5.47;;;4.20;99.90;;;;;;5046146;28;20044;-70
2022/03/20 02:39:12;;;;;;;14.30;6.70;;;4.20;99.90;;;;;;5047274;28;20504;-71
2022/03/20 02:41:39;;;;;;;13.20;5.83;;;4.20;99.90;;;;;;5046183;28;20052;-71
2022/03/20 02:44:05;;;;;;;13.70;5.60;;;4.10;99.90;;;;;;5045656;28;20080;-71
2022/03/20 02:46:32;;;;;;;12.40;5.53;;;4.10;99.90;;;;;;4832871;28;20368;-72
2022/03/20 02:48:59;;;;;;;12.38;5.32;;;4.10;99.90;;;;;;4916345;28;20048;-69
2022/03/20 02:51:24;;;;;;;15.85;5.18;;;4.10;99.90;;;;;;5047161;28;20137;-69
2022/03/20 02:53:50;;;;;;;10.20;5.87;;;4.10;99.90;;;;;;5053243;28;20075;-68
2022/03/20 02:56:16;;;;;;;10.70;5.87;;;4.00;99.90;;;;;;4945984;28;20348;-67
2022/03/20 02:58:42;;;;;;;14.50;6.40;;;4.00;99.90;;;;;;5038066;28;20394;-67
2022/03/20 03:01:08;;;;;;;10.27;5.40;;;3.90;99.90;;;;;;5051626;28;20040;-68
2022/03/20 03:03:34;;;;;;;13.20;5.13;;;3.90;99.90;;;;;;5049028;28;20500;-68
2022/03/20 03:06:06;;;;;;;10.77;5.70;;;3.90;99.90;;;;;;4973913;28;20044;-67
2022/03/20 03:11:16;;;;;;;10.95;5.97;;;3.90;99.90;;;;;;5061164;28;20481;-68
2022/03/20 03:13:42;;;;;;;11.00;5.63;;;3.80;99.90;;;;;;5040909;28;20086;-68
2022/03/20 03:16:10;;;;;;;13.47;6.40;;;3.80;99.90;;;;;;5060852;28;20033;-68
2022/03/20 03:18:38;;;;;;;17.35;6.50;;;3.80;99.90;;;;;;5041547;28;20123;-68
2022/03/20 03:21:04;;;;;;;13.90;6.25;;;3.80;99.90;;;;;;5033227;28;20110;-68
2022/03/20 03:23:30;;;;;;;12.20;5.57;;;3.80;99.90;;;;;;5037871;28;20566;-68
2022/03/20 03:25:56;;;;;;;;;;;3.70;99.90;;;;;;5040162;28;20036;-68
2022/03/20 03:28:28;;;;;;;13.02;6.25;;;3.80;99.90;;;;;;5026461;28;20292;-67
2022/03/20 03:30:54;;;;;;;14.57;6.30;;;3.70;99.90;;;;;;5037811;28;20040;-67
2022/03/20 03:33:21;;;;;;;10.03;6.17;;;3.70;99.90;;;;;;5041691;28;20029;-67
2022/03/20 03:35:53;;;;;;;16.80;6.55;;;3.60;99.90;;;;;;5039256;28;20044;-67
2022/03/20 03:38:22;;;;;;;17.30;6.80;;;3.70;99.90;;;;;;5042528;28;20128;-69
2022/03/20 03:40:49;;;;;;;17.50;6.75;;;3.60;99.90;;;;;;5043195;28;20084;-68
2022/03/20 03:43:17;;;;;;;16.58;6.60;;;3.60;99.90;;;;;;5053974;28;20651;-67
2022/03/20 03:45:43;;;;;;;13.82;6.90;;;3.60;99.90;;;;;;5041653;28;20544;-68
2022/03/20 03:48:09;;;;;;;16.60;7.13;;;3.60;99.90;;;;;;5045282;28;20087;-67
2022/03/20 03:50:38;;;;;;;13.98;6.97;;;3.60;99.90;;;;;;5058827;28;20033;-67
2022/03/20 03:53:05;;;;;;;16.05;7.25;;;3.50;99.90;;;;;;5035507;28;20048;-67
2022/03/20 03:55:32;;;;;;;14.18;7.55;;;3.50;99.90;;;;;;5057008;28;20048;-68
2022/03/20 03:57:59;;;;;;;12.50;7.03;;;3.50;99.90;;;;;;5055753;28;20044;-67
2022/03/20 04:00:27;;;;;;;15.05;7.85;;;3.50;99.90;;;;;;5034590;28;20067;-68
2022/03/20 04:02:53;;;;;;;14.13;6.68;;;3.50;99.90;;;;;;5046398;28;20498;-68
2022/03/20 04:05:19;;;;;;;14.83;7.33;;;3.50;99.90;;;;;;5042567;28;20049;-68
2022/03/20 04:07:47;;;;;;;16.48;7.88;;;3.50;99.90;;;;;;5032745;28;20072;-67
2022/03/20 04:10:15;;;;;;;14.63;6.97;;;3.40;99.90;;;;;;5041590;28;20160;-68
2022/03/20 04:12:41;;;;;;;14.25;7.47;;;3.50;99.90;;;;;;5040567;28;20033;-67
2022/03/20 04:15:08;;;;;;;15.40;7.40;;;3.40;99.90;;;;;;5036169;28;20074;-68
2022/03/20 04:17:34;;;;;;;15.35;8.18;;;3.40;99.90;;;;;;5058301;28;20509;-68
2022/03/20 04:20:01;;;;;;;15.75;7.25;;;3.40;99.90;;;;;;5056341;28;20186;-67
2022/03/20 04:22:28;;;;;;;16.88;7.07;;;3.30;99.90;;;;;;5030460;28;20067;-68
2022/03/20 04:24:54;;;;;;;20.63;8.23;;;3.40;99.90;;;;;;5058311;28;20128;-68
2022/03/20 04:27:20;;;;;;;16.67;8.48;;;3.30;99.90;;;;;;5045273;28;20377;-68
2022/03/20 04:29:48;;;;;;;13.83;8.10;;;3.30;99.90;;;;;;5042481;28;20040;-67
2022/03/20 04:32:13;;;;;;;18.92;8.80;;;3.30;99.90;;;;;;5044104;28;20055;-67
2022/03/20 04:34:41;;;;;;;19.87;8.90;;;3.30;99.90;;;;;;5041395;28;20528;-67
2022/03/20 04:37:08;;;;;;;21.05;8.40;;;3.30;99.90;;;;;;5043234;28;20040;-68
2022/03/20 04:39:34;;;;;;;19.30;8.68;;;3.30;99.90;;;;;;5042237;28;20256;-67
2022/03/20 04:42:00;;;;;;;18.00;8.27;;;3.30;99.90;;;;;;5038876;28;20789;-67
2022/03/20 04:44:26;;;;;;;16.65;8.30;;;3.30;99.90;;;;;;5046758;28;20124;-67
2022/03/20 04:46:53;;;;;;;20.23;8.87;;;3.30;99.90;;;;;;5046853;28;20036;-68
2022/03/20 05:00:15;;;;;;;19.02;9.05;;;3.20;99.90;;;;;;5040789;28;20081;-68
2022/03/20 05:02:42;;;;;;;17.10;9.15;;;3.20;99.90;;;;;;5046738;28;20060;-68
2022/03/20 05:05:09;;;;;;;18.05;10.25;;;3.20;99.90;;;;;;5067038;28;20058;-67
2022/03/20 05:07:35;;;;;;;23.60;9.60;;;3.10;99.90;;;;;;5065134;28;20037;-68
2022/03/20 05:15:30;;;;;;;18.83;9.07;;;3.10;99.90;;;;;;5047507;28;20045;-67
2022/03/20 05:17:56;;;;;;;20.30;9.37;;;3.10;99.90;;;;;;5048028;28;20399;-67
2022/03/20 05:20:23;;;;;;;21.42;10.50;;;3.10;99.90;;;;;;5050720;28;20060;-67
2022/03/20 05:22:50;;;;;;;19.02;9.82;;;3.10;99.90;;;;;;5048481;28;20044;-68
2022/03/20 05:25:16;;;;;;;17.67;8.88;;;3.00;99.90;;;;;;5044004;28;20048;-67
2022/03/20 05:27:42;;;;;;;16.45;8.57;;;3.10;99.90;;;;;;5027968;28;20090;-67
2022/03/20 05:30:09;;;;;;;19.27;9.70;;;3.00;99.90;;;;;;5041046;28;20036;-68
2022/03/20 05:32:35;;;;;;;18.70;9.13;;;3.00;99.90;;;;;;5046611;28;20081;-68
2022/03/20 05:35:09;;;;;;;19.25;9.70;;;3.10;99.90;;;;;;5047001;28;20040;-67
2022/03/20 05:37:38;;;;;;;20.65;9.48;;;3.00;99.90;;;;;;5041965;28;20528;-68
2022/03/20 05:40:05;;;;;;;21.30;10.13;;;3.10;99.90;;;;;;5045991;28;20075;-67
2022/03/20 05:42:30;;;;;;;18.83;9.80;;;3.00;99.90;;;;;;5047593;28;20401;-67
2022/03/20 05:44:56;;;;;;;16.77;8.90;;;3.00;99.90;;;;;;5044858;28;20051;-68
2022/03/20 05:47:22;;;;;;;18.57;9.43;;;3.00;99.90;;;;;;5035946;28;20049;-67
2022/03/20 05:49:49;;;;;;;20.52;10.63;;;3.00;99.90;;;;;;5049272;28;20044;-67
2022/03/20 05:52:15;;;;;;;19.02;9.77;;;2.90;99.90;;;;;;5047852;28;20048;-67
2022/03/20 05:54:41;;;;;;;20.48;10.50;;;3.00;99.90;;;;;;5043915;28;20040;-68
2022/03/20 05:59:53;;;;;;;19.23;9.63;;;2.90;99.90;;;;;;5034402;28;20310;-67
2022/03/20 06:02:20;;;;;;;19.60;9.98;;;2.90;99.90;;;;;;5023370;28;20134;-68
2022/03/20 06:04:46;;;;;;;19.35;8.80;;;2.90;99.90;;;;;;5056997;28;20105;-67
2022/03/20 06:07:12;;;;;;;18.95;9.68;;;2.90;99.90;;;;;;5061480;28;20044;-68
2022/03/20 06:09:38;;;;;;;20.45;11.10;;;2.90;99.90;;;;;;5047539;28;20044;-67
2022/03/20 06:12:05;;;;;;;22.65;10.63;;;2.90;99.90;;;;;;5065728;28;20066;-67
2022/03/20 06:14:32;;;;;;;16.23;9.23;;;2.90;99.90;;;;;;5040875;28;20123;-67
2022/03/20 06:16:58;;;;;;;20.52;10.35;;;2.90;99.90;;;;;;5041843;28;20048;-67
2022/03/20 06:19:24;;;;;;;21.90;10.37;;;3.00;99.90;;;;;;5044147;28;20090;-68
2022/03/20 06:21:49;;;;;;;20.57;9.93;;;3.00;99.90;;;;;;5048631;28;20044;-67
2022/03/20 06:24:15;;;;;;;20.93;10.43;;;2.90;99.90;;;;;;5025353;28;20582;-68
2022/03/20 06:26:41;;;;;;;20.58;10.05;;;3.00;99.90;;;;;;5039610;28;20052;-67
2022/03/20 06:29:07;;;;;;;20.57;10.10;;;3.00;99.90;;;;;;5037918;28;20053;-67
2022/03/20 06:31:33;;;;;;;19.70;9.90;;;3.00;99.90;;;;;;5044633;28;20075;-67
2022/03/20 06:34:00;;;;;;;22.55;10.23;;;3.00;99.90;;;;;;5042907;28;20093;-68
2022/03/20 06:36:27;;;;;;;20.67;10.85;;;3.00;99.90;;;;;;5039903;28;20090;-68
2022/03/20 06:38:53;;;;;;;19.92;10.98;;;3.00;99.90;;;;;;5045556;28;20398;-68
2022/03/20 06:41:19;;;;;;;19.52;10.52;;;3.10;99.90;;;;;;5059603;28;20032;-68
2022/03/20 06:43:44;;;;;;;23.73;10.47;;;3.10;99.90;;;;;;5060591;28;20032;-68
2022/03/20 06:46:10;;;;;;;21.27;11.10;;;3.10;99.90;;;;;;5059962;28;20128;-68
2022/03/20 06:48:36;;;;;;;20.83;11.23;;;3.10;99.90;;;;;;5064727;28;20044;-67
2022/03/20 06:51:04;;;;;;;23.73;11.40;;;3.10;99.90;;;;;;5042002;28;20051;-68
2022/03/20 06:53:30;;;;;;;22.23;11.05;;;3.10;99.90;;;;;;5036577;28;20047;-67
2022/03/20 06:55:56;;;;;;;20.63;10.95;;;3.10;99.90;;;;;;5043010;28;20130;-68
2022/03/20 06:58:23;;;;;;;20.20;10.53;;;3.20;99.90;;;;;;5042982;28;20127;-67
2022/03/20 07:00:49;;;;;;;25.42;11.65;;;3.20;99.90;;;;;;5039203;28;20290;-68
2022/03/20 07:03:15;;;;;;;19.55;10.93;;;3.20;99.90;;;;;;5045533;28;20041;-67
2022/03/20 07:05:41;;;;;;;19.73;11.47;;;3.30;99.90;;;;;;5041071;28;20404;-67
2022/03/20 07:08:08;;;;;;;19.70;10.82;;;3.30;99.90;;;;;;5049198;28;20097;-68
2022/03/20 07:10:34;;;;;;;18.20;10.23;;;3.40;99.90;;;;;;5043973;28;20481;-67
2022/03/20 07:15:46;;;;;;;19.58;11.00;;;3.50;99.90;;;;;;5037664;28;20473;-67
2022/03/20 07:18:14;;;;;;;21.50;11.40;;;3.50;99.90;;;;;;5063002;28;20040;-68
2022/03/20 07:20:45;;;;;;;24.60;10.90;;;3.50;99.90;;;;;;5058007;28;20073;-67
2022/03/20 07:23:12;;;;;;;25.90;11.60;;;3.60;99.90;;;;;;5042192;28;20045;-68
2022/03/20 07:31:08;;;;;;;20.27;11.27;;;3.60;99.90;;;;;;5040059;28;20047;-67
2022/03/20 07:33:34;;;;;;;23.45;11.63;;;3.60;99.90;;;;;;5027944;28;20515;-68
2022/03/20 07:36:04;;;;;;;22.60;11.50;;;3.70;99.90;;;;;;5040830;28;20045;-68
2022/03/20 07:38:30;;;;;;;20.63;11.95;;;3.70;99.90;;;;;;5041222;28;20052;-67
2022/03/20 07:40:56;;;;;;;22.83;12.05;;;3.80;99.90;;;;;;5063933;28;20036;-68
2022/03/20 07:43:21;;;;;;;24.47;10.83;;;3.80;99.90;;;;;;5042630;28;20055;-67
2022/03/20 07:45:47;;;;;;;23.20;10.97;;;3.90;99.90;;;;;;5052582;28;20082;-68
2022/03/20 07:48:13;;;;;;;25.00;11.90;;;4.00;99.90;;;;;;5024239;28;20047;-68
2022/03/20 07:50:40;;;;;;;26.03;12.03;;;4.00;99.90;;;;;;5038568;28;20504;-68
2022/03/20 07:53:06;;;;;;;22.05;10.98;;;4.10;99.90;;;;;;5062645;28;20071;-67
2022/03/20 07:55:34;;;;;;;25.73;12.13;;;4.10;99.90;;;;;;5037909;28;20402;-67
2022/03/20 07:58:00;;;;;;;24.35;11.38;;;4.20;99.90;;;;;;5049047;28;20048;-68
2022/03/20 08:00:26;;;;;;;24.48;11.75;;;4.30;99.90;;;;;;5036961;28;20102;-68
2022/03/20 08:02:52;;;;;;;23.10;11.93;;;4.40;99.90;;;;;;5040419;28;20670;-67
2022/03/20 08:05:18;;;;;;;28.10;12.30;;;4.50;99.90;;;;;;5038567;28;20132;-68
2022/03/20 08:07:44;;;;;;;21.13;10.52;;;4.50;99.90;;;;;;5036578;28;20044;-68
2022/03/20 08:10:11;;;;;;;25.20;12.00;;;4.50;99.90;;;;;;5058686;28;20492;-68
2022/03/20 08:12:38;;;;;;;20.98;12.68;;;4.70;99.90;;;;;;5035402;28;20048;-68
2022/03/20 08:15:05;;;;;;;22.25;11.77;;;4.70;99.90;;;;;;5038010;28;20076;-67
2022/03/20 08:17:31;;;;;;;21.17;11.63;;;4.80;99.90;;;;;;5036523;28;20048;-68
2022/03/20 08:19:57;;;;;;;25.95;12.25;;;4.80;99.90;;;;;;5046995;28;20053;-69
2022/03/20 08:22:26;;;;;;;22.00;11.68;;;4.90;98.10;;;;;;5044671;28;20459;-68
2022/03/20 08:24:52;;;;;;;23.00;11.13;;;5.00;97.90;;;;;;5041178;28;20094;-68
2022/03/20 08:27:20;;;;;;;19.47;10.87;;;5.00;97.10;;;;;;5036374;28;20044;-68
2022/03/20 08:29:46;;;;;;;21.45;12.35;;;5.10;96.40;;;;;;5041750;28;20128;-67
2022/03/20 08:32:12;;;;;;;22.07;11.97;;;5.10;96.40;;;;;;5045808;28;20125;-68
2022/03/20 08:34:38;;;;;;;23.10;12.30;;;5.20;93.80;;;;;;5059262;22;20101;-73
2022/03/20 08:37:04;;;;;;;21.27;11.97;;;5.20;95.00;;;;;;5099002;28;20032;-73
2022/03/20 08:39:29;;;;;;;24.30;11.90;;;5.30;94.60;;;;;;5073060;28;20044;-74
2022/03/20 08:41:55;;;;;;;24.47;11.47;;;5.30;94.00;;;;;;5073165;28;20040;-74
2022/03/20 08:44:21;;;;;;;25.27;13.40;;;5.40;93.30;;;;;;5065311;28;20381;-74
2022/03/20 08:46:46;;;;;;;25.15;14.30;;;5.50;93.80;;;;;;5092283;28;20072;-74
2022/03/20 08:49:12;;;;;;;21.57;11.73;;;5.60;91.00;;;;;;5088364;28;20082;-76
2022/03/20 08:51:42;;;;;;;22.13;13.33;;;5.60;92.50;;;;;;5066032;28;20439;-74
2022/03/20 08:54:09;;;;;;;24.65;13.95;;;5.70;91.40;;;;;;5072994;28;20430;-74
2022/03/20 08:56:34;;;;;;;22.13;12.27;;;5.80;92.50;;;;;;5099040;28;20035;-74
2022/03/20 08:59:00;;;;;;;25.97;13.37;;;5.90;91.60;;;;;;5081619;28;20047;-73
2022/03/20 09:01:26;;;;;;;24.33;12.53;;;6.00;90.80;;;;;;5102716;28;20487;-74
2022/03/20 09:03:52;;;;;;;24.88;12.65;;;6.10;91.00;;;;;;5100512;28;20500;-74
2022/03/20 09:06:22;;;;;;;24.53;12.13;;;6.20;91.20;;;;;;5076507;28;20075;-73
2022/03/20 09:08:48;;;;;;;26.63;12.98;;;6.30;86.10;;;;;;5072044;28;20048;-75
2022/03/20 09:11:14;;;;;;;27.05;13.38;;;6.40;91.00;;;;;;5072229;28;20067;-73
2022/03/20 09:13:40;;;;;;;21.73;11.27;;;6.50;90.30;;;;;;5075144;28;20040;-74
2022/03/20 09:19:00;;;;;;;23.70;13.65;;;6.60;84.90;;;;;;5079065;28;20055;-73
2022/03/20 09:21:31;;;;;;;29.75;12.95;;;6.60;85.10;;;;;;5101158;28;20043;-73
2022/03/20 09:23:57;;;;;;;25.10;12.95;;;6.70;83.10;;;;;;5067452;28;20036;-74
2022/03/20 09:26:22;;;;;;;25.97;13.30;;;6.80;83.60;;;;;;5100514;28;20127;-74
2022/03/20 09:28:48;;;;;;;24.53;13.13;;;6.90;82.30;;;;;;5067901;28;20050;-74
2022/03/20 09:31:15;;;;;;;22.83;12.60;;;7.00;80.90;;;;;;5086834;28;20031;-74
2022/03/20 09:33:41;;;;;;;;;;;7.10;80.20;;;;;;5081625;28;20705;-74
2022/03/20 09:36:06;;;;;;;23.33;12.80;;;7.20;75.30;;;;;;5076620;28;19916;-75
2022/03/20 09:38:33;;;;;;;22.33;12.40;;;7.30;77.50;;;;;;5084688;28;20050;-74
2022/03/20 09:41:03;;;;;;;25.17;13.95;;;7.30;77.50;;;;;;5070124;28;20047;-75
2022/03/20 09:43:31;;;;;;;29.63;14.57;;;7.50;73.50;;;;;;5069708;28;20074;-74
2022/03/20 09:45:57;;;;;;;23.80;14.32;;;7.60;73.00;;;;;;5082058;28;20056;-74
2022/03/20 09:48:23;;;;;;;24.20;12.87;;;7.60;73.00;;;;;;5077439;28;20100;-74
2022/03/20 09:50:49;;;;;;;24.45;13.85;;;7.70;70.50;;;;;;5072759;28;20664;-74
2022/03/20 09:53:15;;;;;;;26.27;13.20;;;7.80;68.90;;;;;;5096294;27;20051;-74
2022/03/20 09:55:42;;;;;;;23.03;13.67;;;7.70;68.60;;;;;;5073273;28;20036;-75
2022/03/20 09:58:08;;;;;;;21.40;12.23;;;8.00;68.50;;;;;;5081289;28;20333;-74
2022/03/20 10:00:34;;;;;;;23.23;12.50;;;8.10;68.40;;;;;;5075262;28;20078;-74
2022/03/20 10:03:17;;;;;;;26.83;13.63;;;8.20;68.30;;;;;;5075191;28;20055;-75
2022/03/20 10:05:42;;;;;;;27.50;13.77;;;8.30;67.40;;;;;;5090662;28;20594;-75
2022/03/20 10:08:10;;;;;;;29.03;13.60;;;8.50;68.00;;;;;;5075928;28;20122;-75
2022/03/20 10:10:36;;;;;;;25.63;13.90;;;8.50;66.30;;;;;;5079318;28;20052;-75
2022/03/20 10:13:11;;;;;;;24.73;13.60;;;8.60;65.20;;;;;;5077315;28;20051;-74
2022/03/20 10:15:42;;;;;;;24.13;13.93;;;8.70;64.90;;;;;;5082934;28;20498;-74
2022/03/20 10:18:09;;;;;;;28.85;14.63;;;8.70;64.80;;;;;;5081757;28;20043;-75
2022/03/20 10:20:47;;;;;;;26.90;13.93;;;8.80;64.00;;;;;;5092048;28;20039;-75
2022/03/20 10:23:32;;;;;;;28.88;13.57;;;8.80;63.30;;;;;;5077440;28;20049;-75
2022/03/20 10:25:59;;;;;;;25.17;14.15;;;8.90;62.60;;;;;;5081786;28;20443;-74
2022/03/20 10:28:34;;;;;;;25.90;14.15;;;9.00;62.80;;;;;;5059143;28;20040;-75
2022/03/20 10:31:02;;;;;;;25.58;14.27;;;9.10;63.10;;;;;;5073986;28;20115;-74
2022/03/20 10:33:27;;;;;;;25.98;14.40;;;9.30;62.60;;;;;;5083571;28;20636;-75
2022/03/20 10:36:17;;;;;;;25.77;13.63;;;9.40;61.90;;;;;;5077563;28;20079;-74
2022/03/20 10:38:45;;;;;;;23.77;14.00;;;9.50;61.80;;;;;;5079333;28;20074;-74
2022/03/20 10:41:19;;;;;;;23.85;13.82;;;9.60;62.00;;;;;;5083501;28;20048;-74
2022/03/20 10:43:45;;;;;;;25.38;13.38;;;9.70;61.50;;;;;;5056464;28;20047;-75
2022/03/20 10:46:32;;;;;;;25.57;14.37;;;9.80;61.20;;;;;;5071865;28;20669;-76
2022/03/20 10:48:59;;;;;;;23.38;13.68;;;9.90;58.40;;;;;;5099572;28;20038;-75
2022/03/20 10:51:37;;;;;;;26.65;15.13;;;9.90;59.60;;;;;;5082304;28;20044;-74
2022/03/20 10:54:05;;;;;;;27.80;15.30;;;10.00;60.00;;;;;;5070999;28;20059;-75
2022/03/20 10:56:31;;;;;;;23.70;13.88;;;10.20;58.50;;;;;;5075990;28;20039;-75
2022/03/20 10:58:57;;;;;;;28.63;15.82;;;10.20;58.10;;;;;;5080339;28;20511;-75
2022/03/20 11:01:36;;;;;;;26.57;14.87;;;10.30;58.40;;;;;;5085793;28;20048;-74
2022/03/20 11:04:05;;;;;;;27.55;15.48;;;10.40;55.90;;;;;;5078604;28;20111;-75
2022/03/20 11:06:30;;;;;;;31.80;16.10;;;10.40;57.50;;;;;;5081420;28;20050;-75
2022/03/20 11:08:56;;;;;;;25.70;14.77;;;10.50;58.00;;;;;;5091883;28;20902;-75
2022/03/20 11:11:24;;;;;;;29.45;15.02;;;10.60;57.00;;;;;;5103381;28;20031;-75
2022/03/20 11:13:53;;;;;;;27.90;15.23;;;10.70;56.30;;;;;;5097818;28;20484;-75
2022/03/20 11:16:23;;;;;;;27.05;14.70;;;10.70;55.50;;;;;;5064487;28;20105;-75
2022/03/20 11:18:53;;;;;;;28.60;15.93;;;10.80;56.50;;;;;;5071980;28;20074;-74
2022/03/20 11:21:23;;;;;;;25.13;14.43;;;10.90;56.10;;;;;;5053470;28;20727;-74
2022/03/20 11:23:51;;;;;;;25.58;13.95;;;11.00;55.90;;;;;;5102992;28;20065;-74
2022/03/20 11:26:20;;;;;;;24.42;15.30;;;11.10;55.90;;;;;;5080853;28;20056;-73
2022/03/20 11:28:53;;;;;;;29.77;15.77;;;11.20;55.30;;;;;;5057165;28;20050;-73
2022/03/20 11:31:20;;;;;;;29.73;15.75;;;11.30;55.10;;;;;;5068814;28;20035;-74
2022/03/20 11:33:47;;;;;;;25.65;16.73;;;11.40;54.60;;;;;;5067517;28;20345;-74
2022/03/20 11:36:13;;;;;;;28.85;16.30;;;11.50;54.60;;;;;;5081328;28;20048;-73
2022/03/20 11:38:40;;;;;;;26.47;15.77;;;11.60;54.60;;;;;;5095553;28;20032;-74
2022/03/20 11:41:09;;;;;;;27.05;15.63;;;11.70;53.70;;;;;;5077940;28;20048;-74
2022/03/20 11:43:37;;;;;;;29.88;17.08;;;11.80;54.30;;;;;;5070090;28;20074;-73
2022/03/20 11:46:30;;;;;;;29.05;16.15;;;11.90;54.20;;;;;;5080151;28;20050;-73
2022/03/20 11:49:14;;;;;;;29.02;15.50;;;11.90;53.00;;;;;;5074275;28;20071;-73
2022/03/20 11:52:06;;;;;;;25.88;15.25;;;12.00;51.50;;;;;;5082230;28;20119;-73
2022/03/20 11:54:40;;;;;;;28.40;15.80;;;12.20;52.70;;;;;;5079773;28;20097;-74
2022/03/20 11:57:28;;;;;;;27.77;15.25;;;12.20;52.30;;;;;;5074500;28;20031;-73
2022/03/20 11:59:58;;;;;;;33.95;16.67;;;12.30;52.10;;;;;;5076727;28;20051;-73
2022/03/20 12:02:36;;;;;;;26.40;15.55;;;12.40;51.80;;;;;;5086397;28;20043;-74
2022/03/20 12:05:09;;;;;;;25.50;15.57;;;12.60;50.50;;;;;;5095878;28;20049;-74
2022/03/20 12:07:55;;;;;;;31.92;15.65;;;12.60;50.80;;;;;;5076983;28;20480;-73
2022/03/20 12:11:28;;;;;;;29.45;16.35;;;12.60;50.50;;;;;;5074223;28;20137;-71
2022/03/20 12:20:12;;;;;;;28.08;16.58;;;12.80;50.00;;;;;;4700836;26;20052;-70
2022/03/20 12:24:01;;;;;;;27.75;15.52;;;12.90;49.50;;;;;;4891599;28;20048;-71
2022/03/20 12:34:15;;;;;;;26.52;16.52;;;12.90;47.80;;;;;;4965806;28;20632;-76
2022/03/20 12:36:41;;;;;;;28.88;15.35;;;13.00;48.20;;;;;;5031403;28;20041;-72
2022/03/20 12:39:10;;;;;;;28.90;16.27;;;13.20;50.10;;;;;;5031360;28;20032;-72
2022/03/20 12:41:37;;;;;;;32.63;16.35;;;13.30;48.30;;;;;;5039720;28;20045;-72
2022/03/20 12:44:09;;;;;;;26.73;15.57;;;13.30;48.70;;;;;;5045829;28;20055;-72
2022/03/20 12:46:41;;;;;;;28.90;16.05;;;13.30;48.80;;;;;;5063015;28;20041;-74
2022/03/20 12:49:11;;;;;;;28.88;15.32;;;13.10;48.10;;;;;;5040097;28;20672;-76
2022/03/20 12:51:36;;;;;;;29.13;17.23;;;13.00;47.90;;;;;;5045394;28;20032;-75
2022/03/20 12:54:10;;;;;;;29.13;17.37;;;12.90;47.80;;;;;;5041681;28;20040;-80
2022/03/20 12:56:50;;;;;;;30.95;17.58;;;12.80;47.50;;;;;;5035782;28;20392;-76
2022/03/20 12:59:20;;;;;;;25.27;15.57;;;12.70;47.90;;;;;;5063349;28;20036;-77
2022/03/20 13:01:46;;;;;;;27.95;16.42;;;12.50;48.60;;;;;;5034072;28;20690;-73
2022/03/20 13:04:19;;;;;;;29.03;16.57;;;12.40;48.90;;;;;;5038036;28;20052;-71
2022/03/20 13:06:45;;;;;;;27.30;16.17;;;12.50;49.40;;;;;;5059699;28;20048;-70
2022/03/20 13:09:14;;;;;;;;;;;12.60;49.90;;;;;;5043981;28;20037;-72
2022/03/20 13:12:03;;;;;;;26.42;15.35;;;12.60;47.40;;;;;;5062838;28;19920;-71
2022/03/20 13:14:27;;;;;;;28.98;15.23;;;12.60;49.30;;;;;;5042973;28;20521;-72
2022/03/20 13:16:56;;;;;;;29.90;17.23;;;12.70;49.10;;;;;;5046675;28;20746;-72
2022/03/20 13:19:37;;;;;;;26.33;15.90;;;12.70;49.00;;;;;;5044365;28;20298;-72
2022/03/20 13:22:05;;;;;;;28.45;16.90;;;12.80;49.00;;;;;;5038633;28;20048;-76
2022/03/20 13:24:40;;;;;;;29.65;15.82;;;13.10;49.50;;;;;;5070533;28;20041;-74
2022/03/20 13:27:07;;;;;;;26.92;16.13;;;13.10;48.10;;;;;;5042737;28;20083;-74
2022/03/20 13:29:38;;;;;;;30.17;16.70;;;13.20;48.00;;;;;;5045689;28;20052;-71
2022/03/20 13:32:10;;;;;;;29.38;16.58;;;13.30;48.30;;;;;;5041440;28;20048;-76
2022/03/20 13:34:46;;;;;;;25.80;16.33;;;13.40;47.70;;;;;;5029147;28;20059;-72